createdAt,value
2019-01-18T00:01:21.009Z,3.90
2019-01-18T00:03:47.444Z,3.50
2019-01-18T00:06:13.845Z,4.10
2019-01-18T00:08:40.238Z,3.73
2019-01-18T00:11:06.595Z,3.90
2019-01-18T00:13:32.947Z,3.47
2019-01-18T00:15:59.280Z,4.27
2019-01-18T00:18:25.613Z,3.07
2019-01-18T00:20:51.950Z,3.83
2019-01-18T00:23:18.476Z,4.13
2019-01-18T00:25:44.818Z,4.27
2019-01-18T00:28:11.158Z,3.63
2019-01-18T00:30:37.578Z,3.10
2019-01-18T00:33:04.000Z,4.03
2019-01-18T00:35:30.437Z,3.67
2019-01-18T00:37:56.810Z,3.87
2019-01-18T00:40:32.046Z,3.80
2019-01-18T00:42:58.427Z,3.70
2019-01-18T00:45:24.759Z,4.20
2019-01-18T00:47:51.164Z,3.97
2019-01-18T00:50:17.450Z,4.40
2019-01-18T00:52:43.839Z,3.83
2019-01-18T00:55:10.166Z,3.17
2019-01-18T00:57:36.516Z,3.20
2019-01-18T01:00:02.901Z,3.30
2019-01-18T01:02:29.231Z,3.73
2019-01-18T01:04:55.723Z,3.60
2019-01-18T01:07:22.162Z,3.47
2019-01-18T01:09:48.585Z,3.30
2019-01-18T01:12:14.916Z,2.90
2019-01-18T01:14:41.230Z,4.53
2019-01-18T01:17:07.577Z,3.40
2019-01-18T01:19:33.963Z,3.00
2019-01-18T01:22:00.318Z,3.50
2019-01-18T01:24:26.720Z,3.60
2019-01-18T01:26:53.180Z,2.90
2019-01-18T01:29:19.560Z,2.90
2019-01-18T01:31:45.925Z,2.87
2019-01-18T01:34:12.277Z,2.83
2019-01-18T01:36:38.629Z,2.80
2019-01-18T01:39:04.961Z,2.60
2019-01-18T01:41:31.306Z,3.03
2019-01-18T01:43:57.646Z,2.70
2019-01-18T01:46:23.967Z,3.00
2019-01-18T01:48:50.340Z,3.20
2019-01-18T01:51:16.673Z,2.63
2019-01-18T01:53:43.015Z,2.60
2019-01-18T01:56:09.363Z,2.87
2019-01-18T01:58:35.738Z,2.60
2019-01-18T02:01:02.061Z,2.70
2019-01-18T02:03:28.547Z,2.60
2019-01-18T02:05:54.935Z,3.00
2019-01-18T02:08:21.355Z,2.80
2019-01-18T02:10:47.671Z,2.90
2019-01-18T02:13:14.008Z,2.80
2019-01-18T02:15:40.346Z,3.00
2019-01-18T02:18:06.676Z,2.30
2019-01-18T02:20:33.003Z,2.80
2019-01-18T02:22:59.326Z,3.20
2019-01-18T02:25:25.693Z,2.73
2019-01-18T02:27:52.029Z,2.60
2019-01-18T02:30:18.364Z,3.17
2019-01-18T02:32:44.718Z,2.90
2019-01-18T02:35:11.089Z,3.20
2019-01-18T02:37:37.430Z,2.47
2019-01-18T02:40:03.756Z,2.60
2019-01-18T02:42:30.127Z,2.80
2019-01-18T02:44:56.408Z,2.87
2019-01-18T02:47:22.844Z,3.10
2019-01-18T02:49:49.176Z,3.10
2019-01-18T02:52:15.591Z,2.70
2019-01-18T02:54:42.023Z,3.47
2019-01-18T02:57:08.360Z,2.90
2019-01-18T02:59:34.690Z,2.87
2019-01-18T03:02:01.060Z,3.37
2019-01-18T03:04:27.399Z,3.30
2019-01-18T03:06:53.729Z,3.07
2019-01-18T03:09:20.089Z,3.27
2019-01-18T03:11:46.419Z,2.63
2019-01-18T03:14:12.773Z,3.10
2019-01-18T03:16:39.203Z,3.10
2019-01-18T03:19:05.585Z,3.07
2019-01-18T03:21:31.914Z,3.70
2019-01-18T03:23:58.297Z,3.47
2019-01-18T03:26:24.636Z,3.80
2019-01-18T03:28:51.071Z,3.80
2019-01-18T03:31:17.449Z,3.40
2019-01-18T03:33:43.774Z,5.43
2019-01-18T03:36:10.103Z,4.07
2019-01-18T03:38:36.433Z,4.03
2019-01-18T03:41:02.770Z,4.23
2019-01-18T03:43:29.093Z,3.47
2019-01-18T03:45:55.497Z,3.90
2019-01-18T03:48:21.825Z,3.50
2019-01-18T03:50:48.190Z,3.87
2019-01-18T03:53:14.555Z,3.97
2019-01-18T03:55:40.918Z,3.70
2019-01-18T03:58:07.258Z,3.67
2019-01-18T04:00:33.660Z,3.70
2019-01-18T04:02:59.953Z,4.70
2019-01-18T04:05:26.288Z,57.00
2019-01-18T04:07:52.670Z,74.13
2019-01-18T04:10:19.003Z,29.90
2019-01-18T04:12:45.325Z,12.20
2019-01-18T04:15:11.673Z,11.17
2019-01-18T04:17:38.103Z,21.53
2019-01-18T04:20:04.416Z,9.63
2019-01-18T04:22:30.842Z,8.07
2019-01-18T04:24:57.175Z,8.27
2019-01-18T04:27:23.564Z,11.50
2019-01-18T04:29:49.902Z,5.47
2019-01-18T04:32:16.283Z,5.20
2019-01-18T04:34:42.614Z,6.50
2019-01-18T04:37:08.958Z,3.73
2019-01-18T04:39:35.289Z,5.40
2019-01-18T04:42:01.642Z,5.73
2019-01-18T04:44:28.025Z,5.27
2019-01-18T04:46:54.358Z,4.33
2019-01-18T04:49:20.682Z,3.93
2019-01-18T04:51:47.019Z,7.30
2019-01-18T04:54:13.430Z,5.20
2019-01-18T04:56:39.777Z,6.80
2019-01-18T04:59:06.103Z,4.30
2019-01-18T05:01:32.430Z,4.50
2019-01-18T05:03:58.765Z,6.03
2019-01-18T05:06:25.182Z,4.53
2019-01-18T05:08:51.564Z,4.30
2019-01-18T05:11:17.966Z,5.00
2019-01-18T05:13:44.306Z,4.10
2019-01-18T05:16:10.636Z,4.70
2019-01-18T05:18:37.068Z,4.37
2019-01-18T05:21:03.402Z,10.73
2019-01-18T05:23:29.752Z,6.67
2019-01-18T05:25:56.161Z,19.73
2019-01-18T05:28:22.494Z,27.30
2019-01-18T05:30:48.822Z,13.40
2019-01-18T05:33:15.237Z,19.10
2019-01-18T05:35:41.564Z,9.97
2019-01-18T05:38:07.955Z,19.10
2019-01-18T05:40:34.314Z,18.57
2019-01-18T05:43:00.633Z,25.20
2019-01-18T05:45:26.962Z,17.60
2019-01-18T05:47:53.307Z,16.80
2019-01-18T05:50:19.682Z,13.20
2019-01-18T05:52:46.013Z,13.60
2019-01-18T05:55:12.448Z,13.00
2019-01-18T05:57:38.849Z,12.63
2019-01-18T06:00:05.184Z,14.50
2019-01-18T06:02:31.652Z,9.10
2019-01-18T06:04:58.040Z,13.27
2019-01-18T06:07:24.375Z,12.53
2019-01-18T06:09:50.704Z,12.50
2019-01-18T06:12:17.052Z,15.30
2019-01-18T06:14:43.396Z,12.37
2019-01-18T06:17:09.735Z,9.97
2019-01-18T06:19:36.056Z,8.77
2019-01-18T06:22:02.388Z,11.53
2019-01-18T06:24:28.793Z,12.70
2019-01-18T06:26:55.199Z,14.73
2019-01-18T06:29:21.555Z,9.33
2019-01-18T06:31:47.963Z,8.90
2019-01-18T06:34:14.297Z,8.83
2019-01-18T06:36:40.722Z,11.90
2019-01-18T06:39:07.006Z,7.80
2019-01-18T06:41:33.334Z,8.30
2019-01-18T06:43:59.762Z,6.03
2019-01-18T06:46:26.314Z,5.50
2019-01-18T06:48:52.735Z,16.33
2019-01-18T06:51:19.097Z,11.13
2019-01-18T06:53:45.432Z,7.90
2019-01-18T06:56:11.806Z,7.83
2019-01-18T06:58:38.151Z,6.10
2019-01-18T07:01:08.468Z,10.50
2019-01-18T07:03:30.994Z,9.10
2019-01-18T07:05:57.348Z,5.60
2019-01-18T07:08:23.781Z,11.40
2019-01-18T07:10:50.133Z,8.73
2019-01-18T07:13:16.941Z,5.37
2019-01-18T07:15:43.273Z,8.33
2019-01-18T07:18:09.652Z,5.60
2019-01-18T07:20:35.944Z,8.60
2019-01-18T07:23:02.372Z,8.70
2019-01-18T07:25:28.725Z,6.13
2019-01-18T07:27:55.124Z,8.00
2019-01-18T07:30:21.452Z,7.10
2019-01-18T07:32:47.789Z,6.40
2019-01-18T07:35:14.153Z,6.20
2019-01-18T07:37:40.492Z,8.20
2019-01-18T07:40:06.830Z,9.40
2019-01-18T07:42:33.160Z,6.40
2019-01-18T07:44:59.568Z,5.73
2019-01-18T07:47:28.082Z,8.47
2019-01-18T07:49:54.451Z,16.47
2019-01-18T07:52:20.755Z,8.83
2019-01-18T07:54:47.092Z,8.03
2019-01-18T07:57:13.463Z,8.47
2019-01-18T07:59:39.802Z,12.17
2019-01-18T08:02:06.181Z,11.93
2019-01-18T08:04:32.518Z,8.07
2019-01-18T08:06:58.905Z,7.10
2019-01-18T08:09:25.302Z,6.47
2019-01-18T08:11:52.864Z,8.00
2019-01-18T08:14:19.153Z,8.53
2019-01-18T08:16:45.556Z,14.20
2019-01-18T08:19:11.880Z,8.33
2019-01-18T08:21:38.219Z,10.07
2019-01-18T08:24:04.564Z,6.33
2019-01-18T08:26:30.899Z,7.40
2019-01-18T08:28:59.871Z,11.07
2019-01-18T08:31:29.048Z,7.03
2019-01-18T08:33:52.536Z,8.03
2019-01-18T08:36:18.878Z,13.13
2019-01-18T08:38:45.269Z,5.53
2019-01-18T08:41:12.988Z,4.90
2019-01-18T08:43:37.985Z,8.60
2019-01-18T08:46:04.323Z,8.00
2019-01-18T08:48:30.670Z,10.57
2019-01-18T08:50:57.005Z,6.07
2019-01-18T08:53:23.350Z,6.70
2019-01-18T08:55:50.754Z,4.63
2019-01-18T08:58:17.119Z,5.67
2019-01-18T09:00:43.471Z,8.37
2019-01-18T09:03:09.829Z,14.87
2019-01-18T09:05:37.469Z,7.03
2019-01-18T09:08:04.105Z,11.30
2019-01-18T09:10:30.456Z,13.97
2019-01-18T09:12:57.002Z,6.47
2019-01-18T09:15:23.342Z,7.17
2019-01-18T09:17:49.714Z,4.97
2019-01-18T09:20:16.109Z,5.23
2019-01-18T09:22:42.482Z,6.67
2019-01-18T09:25:08.930Z,8.23
2019-01-18T09:27:35.277Z,7.73
2019-01-18T09:30:01.604Z,5.10
2019-01-18T09:32:28.023Z,6.80
2019-01-18T09:34:54.969Z,6.03
2019-01-18T09:37:20.895Z,4.40
2019-01-18T09:39:47.279Z,7.63
2019-01-18T09:42:13.620Z,10.40
2019-01-18T09:44:40.019Z,8.37
2019-01-18T09:47:07.448Z,7.93
2019-01-18T09:49:32.785Z,3.90
2019-01-18T09:51:59.180Z,8.30
2019-01-18T09:54:25.613Z,6.00
2019-01-18T09:56:52.036Z,8.13
2019-01-18T09:59:18.426Z,8.63
2019-01-18T10:01:49.481Z,10.80
2019-01-18T10:04:12.310Z,10.17
2019-01-18T10:06:38.701Z,7.07
2019-01-18T10:09:05.043Z,9.93
2019-01-18T10:11:31.498Z,9.77
2019-01-18T10:13:57.843Z,7.43
2019-01-18T10:16:24.183Z,6.83
2019-01-18T10:18:50.586Z,5.33
2019-01-18T10:21:17.002Z,7.13
2019-01-18T10:23:43.430Z,14.50
2019-01-18T10:26:09.780Z,9.80
2019-01-18T10:28:36.148Z,8.23
2019-01-18T10:31:02.471Z,7.13
2019-01-18T10:33:29.706Z,7.63
2019-01-18T10:35:56.049Z,8.93
2019-01-18T10:38:22.377Z,9.37
2019-01-18T10:40:48.758Z,9.60
2019-01-18T10:43:15.098Z,9.10
2019-01-18T10:45:41.532Z,12.23
2019-01-18T10:48:07.866Z,5.30
2019-01-18T10:50:34.193Z,6.87
2019-01-18T10:53:00.602Z,6.70
2019-01-18T10:55:27.936Z,7.67
2019-01-18T10:57:54.328Z,9.50
2019-01-18T11:00:20.662Z,7.57
2019-01-18T11:02:47.047Z,9.83
2019-01-18T11:05:13.480Z,13.83
2019-01-18T11:07:39.879Z,17.93
2019-01-18T11:10:06.283Z,7.80
2019-01-18T11:12:32.695Z,8.13
2019-01-18T11:14:59.174Z,7.50
2019-01-18T11:17:25.657Z,5.83
2019-01-18T11:19:52.437Z,5.57
2019-01-18T11:22:18.921Z,7.33
2019-01-18T11:24:45.296Z,11.60
2019-01-18T11:27:11.686Z,11.20
2019-01-18T11:29:38.046Z,8.50
2019-01-18T11:32:04.425Z,13.47
2019-01-18T11:34:30.915Z,14.47
2019-01-18T11:36:58.267Z,9.07
2019-01-18T11:39:24.875Z,14.00
2019-01-18T11:41:51.305Z,5.97
2019-01-18T11:44:17.735Z,10.83
2019-01-18T11:46:44.066Z,6.93
2019-01-18T11:49:12.199Z,5.27
2019-01-18T11:51:38.676Z,8.73
2019-01-18T11:54:05.042Z,6.17
2019-01-18T11:56:31.529Z,7.60
2019-01-18T11:58:58.026Z,12.90
2019-01-18T12:01:24.434Z,7.70
2019-01-18T12:03:50.851Z,8.27
2019-01-18T12:06:17.207Z,7.87
2019-01-18T12:08:44.496Z,18.33
2019-01-18T12:11:11.065Z,9.50
2019-01-18T12:13:37.475Z,8.63
2019-01-18T12:16:06.077Z,4.60
2019-01-18T12:18:32.481Z,4.60
2019-01-18T12:20:59.176Z,5.63
2019-01-18T12:23:25.570Z,4.97
2019-01-18T12:25:51.984Z,5.97
2019-01-18T12:28:18.490Z,6.60
2019-01-18T12:30:44.905Z,9.80
2019-01-18T12:33:11.335Z,3.53
2019-01-18T12:35:37.734Z,6.50
2019-01-18T12:38:04.126Z,4.50
2019-01-18T12:40:30.511Z,5.80
2019-01-18T12:42:57.842Z,6.23
2019-01-18T12:45:23.265Z,6.50
2019-01-18T12:47:49.677Z,8.87
2019-01-18T12:50:16.060Z,10.10
2019-01-18T12:52:42.390Z,6.90
2019-01-18T12:55:08.933Z,5.37
2019-01-18T12:57:35.353Z,8.00
2019-01-18T13:00:01.699Z,4.93
2019-01-18T13:02:28.047Z,4.17
2019-01-18T13:04:54.458Z,9.20
2019-01-18T13:07:20.796Z,4.23
2019-01-18T13:09:47.220Z,8.90
2019-01-18T13:12:13.561Z,6.60
2019-01-18T13:14:42.171Z,5.40
2019-01-18T13:17:08.527Z,5.77
2019-01-18T13:19:34.920Z,3.23
2019-01-18T13:22:01.292Z,8.70
2019-01-18T13:24:27.664Z,4.20
2019-01-18T13:26:54.068Z,5.83
2019-01-18T13:29:20.461Z,4.83
2019-01-18T13:31:46.831Z,6.17
2019-01-18T13:34:15.440Z,8.13
2019-01-18T13:36:41.792Z,5.50
2019-01-18T13:39:08.163Z,6.50
2019-01-18T13:41:34.532Z,7.67
2019-01-18T13:44:00.872Z,6.27
2019-01-18T13:46:27.380Z,8.90
2019-01-18T13:48:53.805Z,6.40
2019-01-18T13:51:20.164Z,11.07
2019-01-18T13:53:46.568Z,7.53
2019-01-18T13:56:12.909Z,9.40
2019-01-18T13:58:41.408Z,3.50
2019-01-18T14:01:07.799Z,8.43
2019-01-18T14:03:34.146Z,5.23
2019-01-18T14:06:00.510Z,5.17
2019-01-18T14:08:26.853Z,8.27
2019-01-18T14:10:53.249Z,6.43
2019-01-18T14:13:19.613Z,5.13
2019-01-18T14:15:46.001Z,5.60
2019-01-18T14:18:12.367Z,3.60
2019-01-18T14:20:38.764Z,6.70
2019-01-18T14:23:05.215Z,10.50
2019-01-18T14:25:31.551Z,8.70
2019-01-18T14:27:57.923Z,4.60
2019-01-18T14:30:24.305Z,7.10
2019-01-18T14:32:55.467Z,6.10
2019-01-18T14:35:16.983Z,4.07
2019-01-18T14:37:43.503Z,4.20
2019-01-18T14:40:10.050Z,7.07
2019-01-18T14:42:36.432Z,7.30
2019-01-18T14:45:02.865Z,8.63
2019-01-18T14:47:29.195Z,8.50
2019-01-18T14:49:55.610Z,6.17
2019-01-18T14:52:21.956Z,11.63
2019-01-18T14:54:48.298Z,5.80
2019-01-18T14:57:14.740Z,5.53
2019-01-18T14:59:41.110Z,8.07
2019-01-18T15:02:07.444Z,8.70
2019-01-18T15:04:33.851Z,4.37
2019-01-18T15:07:00.208Z,10.93
2019-01-18T15:09:26.574Z,5.93
2019-01-18T15:11:52.910Z,8.70
2019-01-18T15:14:19.291Z,8.57
2019-01-18T15:16:45.627Z,12.00
2019-01-18T15:19:12.051Z,9.73
2019-01-18T15:21:38.486Z,8.10
2019-01-18T15:24:04.826Z,4.47
2019-01-18T15:26:31.168Z,4.90
2019-01-18T15:28:57.626Z,5.43
2019-01-18T15:31:24.104Z,5.30
2019-01-18T15:33:50.516Z,5.43
2019-01-18T15:36:16.917Z,7.90
2019-01-18T15:38:43.326Z,5.43
2019-01-18T15:41:09.796Z,7.10
2019-01-18T15:43:36.100Z,6.27
2019-01-18T15:46:02.479Z,6.63
2019-01-18T15:48:28.820Z,7.10
2019-01-18T15:50:55.230Z,11.83
2019-01-18T15:53:21.564Z,4.83
2019-01-18T15:55:47.902Z,6.77
2019-01-18T15:58:14.276Z,6.20
2019-01-18T16:00:40.626Z,11.33
2019-01-18T16:03:06.952Z,7.10
2019-01-18T16:05:33.280Z,9.60
2019-01-18T16:07:59.636Z,5.57
2019-01-18T16:10:26.067Z,7.10
2019-01-18T16:12:52.402Z,5.67
2019-01-18T16:15:18.751Z,7.70
2019-01-18T16:17:45.186Z,8.13
2019-01-18T16:20:11.521Z,13.23
2019-01-18T16:22:37.867Z,9.20
2019-01-18T16:25:04.258Z,8.30
2019-01-18T16:27:30.595Z,7.50
2019-01-18T16:29:56.945Z,5.77
2019-01-18T16:32:23.288Z,5.53
2019-01-18T16:34:49.635Z,11.33
2019-01-18T16:37:15.978Z,6.63
2019-01-18T16:39:42.309Z,7.30
2019-01-18T16:42:08.672Z,15.63
2019-01-18T16:44:35.112Z,5.80
2019-01-18T16:47:01.442Z,5.40
2019-01-18T16:49:31.070Z,4.83
2019-01-18T16:51:57.391Z,7.87
2019-01-18T16:54:23.724Z,5.70
2019-01-18T16:56:50.101Z,4.90
2019-01-18T16:59:16.537Z,6.13
2019-01-18T17:01:42.901Z,9.20
2019-01-18T17:04:09.235Z,9.57
2019-01-18T17:06:35.601Z,7.23
2019-01-18T17:09:02.002Z,4.20
2019-01-18T17:11:28.371Z,6.13
2019-01-18T17:13:54.745Z,5.80
2019-01-18T17:16:21.092Z,6.73
2019-01-18T17:18:47.416Z,4.73
2019-01-18T17:21:13.753Z,4.80
2019-01-18T17:23:40.117Z,8.53
2019-01-18T17:26:06.444Z,4.17
2019-01-18T17:28:32.799Z,5.63
2019-01-18T17:30:59.132Z,4.63
2019-01-18T17:33:25.511Z,8.20
2019-01-18T17:35:51.842Z,11.40
2019-01-18T17:38:18.242Z,7.60
2019-01-18T17:40:44.576Z,9.73
2019-01-18T17:43:11.031Z,3.70
2019-01-18T17:45:37.395Z,7.33
2019-01-18T17:48:03.738Z,5.67
2019-01-18T17:50:30.076Z,4.83
2019-01-18T17:52:56.454Z,5.77
2019-01-18T17:55:22.839Z,6.70
2019-01-18T17:57:49.167Z,4.73
2019-01-18T18:00:15.563Z,4.53
2019-01-18T18:02:41.915Z,4.27
2019-01-18T18:05:08.259Z,4.20
2019-01-18T18:07:34.638Z,6.50
2019-01-18T18:10:01.025Z,4.17
2019-01-18T18:12:27.381Z,4.80
2019-01-18T18:14:53.732Z,4.97
2019-01-18T18:17:20.140Z,5.00
2019-01-18T18:19:46.495Z,4.17
2019-01-18T18:22:12.837Z,4.53
2019-01-18T18:24:39.240Z,4.03
2019-01-18T18:27:05.531Z,4.30
2019-01-18T18:29:31.870Z,4.10
2019-01-18T18:31:58.265Z,4.30
2019-01-18T18:34:24.605Z,6.13
2019-01-18T18:36:50.937Z,4.57
2019-01-18T18:39:17.266Z,5.10
2019-01-18T18:41:43.656Z,4.30
2019-01-18T18:44:10.137Z,6.87
2019-01-18T18:46:36.459Z,4.33
2019-01-18T18:49:02.798Z,4.00
2019-01-18T18:51:29.145Z,4.83
2019-01-18T18:53:55.513Z,6.00
2019-01-18T18:56:21.887Z,6.40
2019-01-18T18:58:48.218Z,4.50
2019-01-18T19:01:14.548Z,4.17
2019-01-18T19:03:41.235Z,5.40
2019-01-18T19:06:07.248Z,4.10
2019-01-18T19:08:33.578Z,7.13
2019-01-18T19:10:59.919Z,3.90
2019-01-18T19:13:26.270Z,4.17
2019-01-18T19:15:52.615Z,7.87
2019-01-18T19:18:18.971Z,7.33
2019-01-18T19:20:45.291Z,4.10
2019-01-18T19:23:11.629Z,4.17
2019-01-18T19:25:38.014Z,4.60
2019-01-18T19:28:04.346Z,4.87
2019-01-18T19:30:30.686Z,8.00
2019-01-18T19:32:57.074Z,6.67
2019-01-18T19:35:23.405Z,5.77
2019-01-18T19:37:49.819Z,8.23
2019-01-18T19:40:16.158Z,5.83
2019-01-18T19:42:42.595Z,6.30
2019-01-18T19:45:08.925Z,5.30
2019-01-18T19:47:35.257Z,6.23
2019-01-18T19:50:01.595Z,4.87
2019-01-18T19:52:27.920Z,5.10
2019-01-18T19:54:54.251Z,5.40
2019-01-18T19:57:20.589Z,6.50
2019-01-18T19:59:46.976Z,6.87
2019-01-18T20:02:13.350Z,6.20
2019-01-18T20:04:39.737Z,5.40
2019-01-18T20:07:06.114Z,6.40
2019-01-18T20:09:32.418Z,7.83
2019-01-18T20:11:58.747Z,6.00
2019-01-18T20:14:25.146Z,6.23
2019-01-18T20:16:51.442Z,6.27
2019-01-18T20:19:18.527Z,6.10
2019-01-18T20:21:44.142Z,6.30
2019-01-18T20:24:10.476Z,6.80
2019-01-18T20:26:36.802Z,6.07
2019-01-18T20:29:03.159Z,7.47
2019-01-18T20:31:29.497Z,6.13
2019-01-18T20:33:55.896Z,6.10
2019-01-18T20:36:22.276Z,6.23
2019-01-18T20:38:48.629Z,5.83
2019-01-18T20:41:14.954Z,6.93
2019-01-18T20:43:41.336Z,8.47
2019-01-18T20:46:07.668Z,6.67
2019-01-18T20:48:33.990Z,6.13
2019-01-18T20:51:00.356Z,5.90
2019-01-18T20:53:26.725Z,5.90
2019-01-18T20:55:53.072Z,5.10
2019-01-18T20:58:19.418Z,6.77
2019-01-18T21:00:45.772Z,6.00
2019-01-18T21:03:12.146Z,6.07
2019-01-18T21:05:38.478Z,7.00
2019-01-18T21:08:04.841Z,7.10
2019-01-18T21:10:31.198Z,6.30
2019-01-18T21:12:57.529Z,7.53
2019-01-18T21:15:23.849Z,8.50
2019-01-18T21:17:50.199Z,6.90
2019-01-18T21:20:16.636Z,7.33
2019-01-18T21:22:43.070Z,6.77
2019-01-18T21:25:09.434Z,6.80
2019-01-18T21:27:35.781Z,8.00
2019-01-18T21:30:02.129Z,7.00
2019-01-18T21:32:28.441Z,7.20
2019-01-18T21:34:54.821Z,7.57
2019-01-18T21:37:21.145Z,6.23
2019-01-18T21:39:47.483Z,6.27
2019-01-18T21:42:13.894Z,6.13
2019-01-18T21:44:40.176Z,7.10
2019-01-18T21:47:06.486Z,7.20
2019-01-18T21:49:32.862Z,10.20
2019-01-18T21:51:59.148Z,7.90
2019-01-18T21:54:25.467Z,6.23
2019-01-18T21:56:51.879Z,7.47
2019-01-18T21:59:18.126Z,5.80
2019-01-18T22:01:44.462Z,6.67
2019-01-18T22:04:10.833Z,6.43
2019-01-18T22:06:37.183Z,6.40
2019-01-18T22:09:03.547Z,6.33
2019-01-18T22:11:29.908Z,8.13
2019-01-18T22:13:56.277Z,6.10
2019-01-18T22:16:22.618Z,7.70
2019-01-18T22:18:49.012Z,6.67
2019-01-18T22:21:15.365Z,7.10
2019-01-18T22:23:41.694Z,6.80
2019-01-18T22:26:08.152Z,6.00
2019-01-18T22:28:34.489Z,6.63
2019-01-18T22:31:00.882Z,5.87
2019-01-18T22:33:27.212Z,6.17
2019-01-18T22:35:53.552Z,5.83
2019-01-18T22:38:19.939Z,6.67
2019-01-18T22:40:46.266Z,5.70
2019-01-18T22:43:12.634Z,5.57
2019-01-18T22:45:38.961Z,6.20
2019-01-18T22:48:05.291Z,5.10
2019-01-18T22:50:31.615Z,5.63
2019-01-18T22:52:58.010Z,5.47
2019-01-18T22:55:24.368Z,5.60
2019-01-18T22:57:50.722Z,5.63
2019-01-18T23:00:17.073Z,5.00
2019-01-18T23:02:43.477Z,5.87
2019-01-18T23:05:09.868Z,5.83
2019-01-18T23:07:36.196Z,5.00
2019-01-18T23:10:02.526Z,6.53
2019-01-18T23:12:28.923Z,4.90
2019-01-18T23:14:55.260Z,5.90
2019-01-18T23:17:21.590Z,5.30
2019-01-18T23:19:47.926Z,4.97
2019-01-18T23:22:14.303Z,5.23
2019-01-18T23:24:40.633Z,5.63
2019-01-18T23:27:06.985Z,5.67
2019-01-18T23:29:33.367Z,7.07
2019-01-18T23:31:59.738Z,5.57
2019-01-18T23:34:27.183Z,5.87
2019-01-18T23:36:52.380Z,6.40
2019-01-18T23:39:18.727Z,6.33
2019-01-18T23:41:45.100Z,6.10
2019-01-18T23:44:11.438Z,6.27
2019-01-18T23:46:37.815Z,5.93
2019-01-18T23:49:04.132Z,5.17
2019-01-18T23:51:30.501Z,6.03
2019-01-18T23:53:56.827Z,6.30
2019-01-18T23:56:23.155Z,4.77
2019-01-18T23:58:49.497Z,5.70
